Time;durP1;ratioP1;P1;durP2;ratioP2;P2;SDS_P1;SDS_P2;PMS_P1;PMS_P2;Temp;Humidity;BMP_temperature;BMP_pressure;BME280_temperature;BME280_humidity;BME280_pressure;Samples;Min_cycle;Max_cycle;Signal;HPM_P1;HPM_P2
2023/12/24 00:00:48;;;;;;;7.05;2.40;;;10.70;99.90;;;;;;4853621;29;20386;-90
2023/12/24 00:03:13;;;;;;;5.65;1.55;;;10.70;99.90;;;;;;4864640;29;20037;-92
2023/12/24 00:05:39;;;;;;;7.82;1.77;;;10.70;99.90;;;;;;4854343;29;20033;-92
2023/12/24 00:08:05;;;;;;;3.20;1.30;;;10.70;99.90;;;;;;4821949;29;20470;-92
2023/12/24 00:10:31;;;;;;;6.72;1.50;;;10.70;99.90;;;;;;4838201;29;20041;-92
2023/12/24 00:12:56;;;;;;;6.82;1.88;;;10.70;99.90;;;;;;4849465;29;20116;-91
2023/12/24 00:15:22;;;;;;;10.35;1.85;;;10.70;99.90;;;;;;4849675;29;20073;-94
2023/12/24 00:17:47;;;;;;;6.30;1.33;;;10.70;99.90;;;;;;4880607;29;20033;-95
2023/12/24 00:20:13;;;;;;;5.03;1.40;;;10.70;99.90;;;;;;4837345;29;20541;-93
2023/12/24 00:22:39;;;;;;;7.10;1.60;;;10.70;99.90;;;;;;4883166;29;20037;-93
2023/12/24 00:25:05;;;;;;;5.78;1.70;;;10.70;99.90;;;;;;4855248;29;20041;-90
2023/12/24 00:27:32;;;;;;;6.35;1.65;;;10.70;99.90;;;;;;4865269;29;20030;-94
2023/12/24 00:29:57;;;;;;;4.95;1.38;;;10.70;99.90;;;;;;4873451;29;20048;-95
2023/12/24 00:32:23;;;;;;;8.75;1.77;;;10.70;99.90;;;;;;4850337;29;20551;-93
2023/12/24 00:34:48;;;;;;;3.63;1.73;;;10.70;99.90;;;;;;4848733;29;20041;-87
2023/12/24 00:37:14;;;;;;;4.63;1.60;;;10.70;99.90;;;;;;4851532;29;20060;-95
2023/12/24 00:39:40;;;;;;;6.82;1.58;;;10.70;99.90;;;;;;4865296;29;20045;-93
2023/12/24 00:42:05;;;;;;;4.78;1.50;;;10.70;99.90;;;;;;4849657;29;20033;-92
2023/12/24 00:44:31;;;;;;;4.88;1.70;;;10.70;99.90;;;;;;4848928;29;20037;-93
2023/12/24 00:46:57;;;;;;;8.85;1.70;;;10.70;99.90;;;;;;4848397;29;20040;-94
2023/12/24 00:49:25;;;;;;;6.03;1.98;;;10.70;99.90;;;;;;4864679;29;20063;-92
2023/12/24 00:51:53;;;;;;;3.55;1.30;;;10.70;99.90;;;;;;4860258;29;20068;-93
2023/12/24 00:54:19;;;;;;;4.45;1.30;;;10.70;99.90;;;;;;4851255;29;20029;-94
2023/12/24 00:56:44;;;;;;;4.50;1.35;;;10.70;99.90;;;;;;4867693;29;20529;-93
2023/12/24 00:59:10;;;;;;;5.93;1.52;;;10.70;99.90;;;;;;4854867;29;20409;-94
2023/12/24 01:01:36;;;;;;;4.90;1.45;;;10.70;99.90;;;;;;4856840;29;20045;-93
2023/12/24 01:04:01;;;;;;;5.50;1.60;;;10.70;99.90;;;;;;4853148;29;20028;-94
2023/12/24 01:06:27;;;;;;;4.72;1.23;;;10.70;99.90;;;;;;4849009;29;20390;-95
2023/12/24 01:08:52;;;;;;;3.85;1.10;;;10.70;99.90;;;;;;4832847;29;20124;-95
2023/12/24 01:11:19;;;;;;;3.72;1.42;;;10.70;99.90;;;;;;4850727;29;20060;-92
2023/12/24 01:13:44;;;;;;;4.40;1.80;;;10.70;99.90;;;;;;4850790;29;20037;-92
2023/12/24 01:16:10;;;;;;;4.03;1.02;;;10.70;99.90;;;;;;4835597;29;20025;-92
2023/12/24 01:18:36;;;;;;;4.03;1.25;;;10.70;99.90;;;;;;4831155;29;20036;-91
2023/12/24 01:21:01;;;;;;;2.78;1.15;;;10.80;99.90;;;;;;4847463;29;20030;-92
2023/12/24 01:23:27;;;;;;;7.32;1.48;;;10.80;99.90;;;;;;4847701;29;20033;-93
2023/12/24 01:25:53;;;;;;;3.28;1.20;;;10.80;99.90;;;;;;4847816;29;20030;-91
2023/12/24 01:28:19;;;;;;;1.85;1.20;;;10.80;99.90;;;;;;4860116;29;20045;-91
2023/12/24 01:30:44;;;;;;;8.27;1.70;;;10.80;99.90;;;;;;4874203;29;20037;-91
2023/12/24 01:33:10;;;;;;;3.85;1.30;;;10.80;99.90;;;;;;4882366;29;20044;-92
2023/12/24 01:35:37;;;;;;;5.50;1.65;;;10.80;99.90;;;;;;4866036;29;20506;-93
2023/12/24 01:38:06;;;;;;;1.60;1.20;;;10.80;99.90;;;;;;4865688;29;20077;-87
2023/12/24 01:40:31;;;;;;;3.92;1.70;;;10.70;99.90;;;;;;4856089;29;20061;-93
2023/12/24 01:42:57;;;;;;;6.40;1.45;;;10.70;99.90;;;;;;4832407;29;20037;-92
2023/12/24 01:45:22;;;;;;;2.70;1.30;;;10.70;99.90;;;;;;4862869;29;20048;-95
2023/12/24 01:47:49;;;;;;;4.35;1.40;;;10.80;99.90;;;;;;4849696;29;20093;-93
2023/12/24 01:50:15;;;;;;;5.72;1.77;;;10.80;99.90;;;;;;4850896;29;20033;-92
2023/12/24 01:52:41;;;;;;;3.80;1.35;;;10.80;99.90;;;;;;4854887;29;20041;-91
2023/12/24 01:55:07;;;;;;;4.57;1.60;;;10.70;99.90;;;;;;4871122;29;20040;-89
2023/12/24 01:57:34;;;;;;;4.95;1.50;;;10.80;99.90;;;;;;4872512;29;20061;-94
2023/12/24 02:00:00;;;;;;;8.57;1.88;;;10.80;99.90;;;;;;4841326;29;20025;-93
2023/12/24 02:02:28;;;;;;;5.53;1.77;;;10.70;99.90;;;;;;4846608;29;20174;-93
2023/12/24 02:04:54;;;;;;;5.68;1.52;;;10.70;99.90;;;;;;4852579;29;20033;-94
2023/12/24 02:07:23;;;;;;;3.60;1.73;;;10.60;99.90;;;;;;4831474;29;20116;-95
2023/12/24 02:09:48;;;;;;;5.65;2.10;;;10.60;99.90;;;;;;4863539;29;20041;-93
2023/12/24 02:12:14;;;;;;;3.38;1.60;;;10.60;99.90;;;;;;4852887;29;20041;-94
2023/12/24 02:14:40;;;;;;;5.60;1.70;;;10.60;99.90;;;;;;4850841;29;20025;-94
2023/12/24 02:17:07;;;;;;;4.60;1.60;;;10.50;99.90;;;;;;4836189;29;20033;-91
2023/12/24 02:19:33;;;;;;;5.28;1.90;;;10.50;99.90;;;;;;4866997;29;20041;-96
2023/12/24 02:21:59;;;;;;;3.28;1.80;;;10.50;99.90;;;;;;4839620;29;20093;-93
2023/12/24 02:24:24;;;;;;;4.32;2.00;;;10.50;99.90;;;;;;4842726;29;20096;-93
2023/12/24 02:27:04;;;;;;;6.13;2.38;;;10.50;99.90;;;;;;4852521;29;20466;-91
2023/12/24 02:29:40;;;;;;;5.90;2.20;;;10.50;99.90;;;;;;4865246;29;20216;-94
2023/12/24 02:32:17;;;;;;;5.60;2.08;;;10.50;99.90;;;;;;4857452;29;20033;-90
2023/12/24 02:34:49;;;;;;;7.40;2.42;;;10.40;99.90;;;;;;4857897;29;20089;-94
2023/12/24 02:37:15;;;;;;;6.18;2.58;;;10.50;99.90;;;;;;4834365;29;20427;-92
2023/12/24 02:39:42;;;;;;;4.50;2.08;;;10.40;99.90;;;;;;4848505;29;20057;-93
2023/12/24 02:42:08;;;;;;;5.55;2.20;;;10.40;99.90;;;;;;4872179;29;20162;-89
2023/12/24 02:44:35;;;;;;;9.90;3.00;;;10.40;99.90;;;;;;4854061;29;20053;-93
2023/12/24 02:47:01;;;;;;;4.97;2.40;;;10.40;99.90;;;;;;4858504;29;20029;-93
2023/12/24 02:49:27;;;;;;;8.35;2.70;;;10.50;99.90;;;;;;4852705;29;20037;-92
2023/12/24 02:51:52;;;;;;;7.03;2.90;;;10.50;99.90;;;;;;4842516;29;20040;-92
2023/12/24 02:54:18;;;;;;;11.50;3.65;;;10.40;99.90;;;;;;4862973;29;20546;-85
2023/12/24 02:56:44;;;;;;;6.88;2.95;;;10.50;99.90;;;;;;4863346;29;20099;-86
2023/12/24 02:59:10;;;;;;;6.57;2.97;;;10.50;99.90;;;;;;4863747;29;20488;-83
2023/12/24 03:01:35;;;;;;;9.55;3.78;;;10.50;99.90;;;;;;4847830;29;20029;-84
2023/12/24 03:04:02;;;;;;;7.45;3.70;;;10.50;99.90;;;;;;4848073;29;20021;-85
2023/12/24 03:06:28;;;;;;;7.55;3.25;;;10.50;99.90;;;;;;4862462;29;20029;-86
2023/12/24 03:08:53;;;;;;;11.43;4.25;;;10.50;99.90;;;;;;4847980;29;20040;-85
2023/12/24 03:11:19;;;;;;;8.07;3.67;;;10.50;99.90;;;;;;4848063;29;20085;-85
2023/12/24 03:13:45;;;;;;;6.53;3.70;;;10.50;99.90;;;;;;4847961;29;20029;-85
2023/12/24 03:16:10;;;;;;;6.38;3.67;;;10.50;99.90;;;;;;4848355;29;20035;-85
2023/12/24 03:18:36;;;;;;;5.15;3.20;;;10.50;99.90;;;;;;4851294;29;20422;-85
2023/12/24 03:21:02;;;;;;;8.63;3.38;;;10.50;99.90;;;;;;4867544;29;20028;-85
2023/12/24 03:23:27;;;;;;;7.60;3.65;;;10.50;99.90;;;;;;4852372;29;20061;-85
2023/12/24 03:25:54;;;;;;;6.65;3.00;;;10.50;99.90;;;;;;4867106;29;20032;-84
2023/12/24 03:28:19;;;;;;;4.80;2.60;;;10.40;99.90;;;;;;4906917;29;20078;-83
2023/12/24 03:30:45;;;;;;;5.65;2.20;;;10.50;99.90;;;;;;4875450;29;20041;-85
2023/12/24 03:33:10;;;;;;;6.20;2.58;;;10.40;99.90;;;;;;4875596;29;20097;-85
2023/12/24 03:35:36;;;;;;;4.93;2.75;;;10.50;99.90;;;;;;4891160;29;20035;-85
2023/12/24 03:38:03;;;;;;;5.28;2.20;;;10.50;99.90;;;;;;4869220;29;20033;-84
2023/12/24 03:40:29;;;;;;;6.57;2.70;;;10.50;99.90;;;;;;4866878;29;20458;-85
2023/12/24 03:42:54;;;;;;;5.47;2.53;;;10.50;99.90;;;;;;4866854;29;20021;-86
2023/12/24 03:45:20;;;;;;;5.20;2.10;;;10.50;99.90;;;;;;4866677;29;20037;-85
2023/12/24 03:47:45;;;;;;;3.65;2.20;;;10.50;99.90;;;;;;4866695;29;20025;-87
2023/12/24 03:50:11;;;;;;;3.92;2.17;;;10.60;99.90;;;;;;4866974;29;20080;-86
2023/12/24 03:52:37;;;;;;;4.40;2.20;;;10.60;99.90;;;;;;4851289;29;20029;-86
2023/12/24 03:55:03;;;;;;;3.72;1.80;;;10.60;99.90;;;;;;4851303;29;20466;-87
2023/12/24 03:57:28;;;;;;;4.70;1.90;;;10.60;99.90;;;;;;4850918;29;20052;-86
2023/12/24 03:59:54;;;;;;;3.33;2.03;;;10.60;99.90;;;;;;4866766;29;20452;-87
2023/12/24 04:02:24;;;;;;;3.15;1.50;;;10.60;99.90;;;;;;4853493;29;20025;-87
2023/12/24 04:04:50;;;;;;;3.33;1.33;;;10.60;99.90;;;;;;4854672;29;20033;-87
2023/12/24 04:07:16;;;;;;;2.40;1.00;;;10.60;99.90;;;;;;4869140;29;20347;-87
2023/12/24 04:09:42;;;;;;;2.03;1.10;;;10.60;99.90;;;;;;4853283;29;20070;-86
2023/12/24 04:12:08;;;;;;;2.15;1.08;;;10.50;99.90;;;;;;4868906;29;20033;-86
2023/12/24 04:14:38;;;;;;;1.10;1.00;;;10.60;99.90;;;;;;4852030;29;20032;-86
2023/12/24 04:17:04;;;;;;;0.75;0.75;;;10.60;99.90;;;;;;4883001;29;20477;-87
2023/12/24 04:19:30;;;;;;;1.45;0.82;;;10.60;99.90;;;;;;4866401;29;20060;-86
2023/12/24 04:21:56;;;;;;;1.50;0.80;;;10.60;99.90;;;;;;4866353;29;20112;-86
2023/12/24 04:24:25;;;;;;;1.17;0.82;;;10.60;99.90;;;;;;4882830;29;20088;-85
2023/12/24 04:26:50;;;;;;;1.48;0.80;;;10.60;99.90;;;;;;4867324;29;20029;-86
2023/12/24 04:29:16;;;;;;;2.10;0.95;;;10.60;99.90;;;;;;4865572;29;20355;-86
2023/12/24 04:31:42;;;;;;;1.38;0.90;;;10.60;99.90;;;;;;4850818;29;20422;-85
2023/12/24 04:34:07;;;;;;;0.70;0.70;;;10.70;99.90;;;;;;4882854;29;20048;-87
2023/12/24 04:36:36;;;;;;;1.02;0.80;;;10.70;99.90;;;;;;4850997;29;20511;-86
2023/12/24 04:39:02;;;;;;;1.45;0.90;;;10.70;99.90;;;;;;4865111;29;20417;-86
2023/12/24 04:41:28;;;;;;;1.75;0.80;;;10.70;99.90;;;;;;4865753;29;20358;-85
2023/12/24 04:43:54;;;;;;;0.70;0.70;;;10.80;99.90;;;;;;4850509;29;20037;-87
2023/12/24 04:46:23;;;;;;;0.88;0.68;;;10.80;99.90;;;;;;4882569;29;20085;-85
2023/12/24 04:48:48;;;;;;;0.50;0.50;;;10.80;99.90;;;;;;4865768;29;20031;-86
2023/12/24 04:51:15;;;;;;;1.30;0.80;;;10.80;99.90;;;;;;4882581;29;20473;-87
2023/12/24 04:53:41;;;;;;;0.68;0.60;;;10.80;99.90;;;;;;4866395;29;20057;-87
2023/12/24 04:56:07;;;;;;;0.75;0.40;;;10.80;99.90;;;;;;4867094;29;20021;-87
2023/12/24 04:58:32;;;;;;;0.80;0.45;;;10.80;99.90;;;;;;4887405;29;20068;-86
2023/12/24 05:00:58;;;;;;;0.50;0.50;;;10.90;99.90;;;;;;4889845;29;20036;-86
2023/12/24 05:03:24;;;;;;;1.25;0.50;;;10.90;99.90;;;;;;4889498;29;20025;-87
2023/12/24 05:05:49;;;;;;;0.57;0.40;;;10.90;99.90;;;;;;4871276;29;20020;-86
2023/12/24 05:08:15;;;;;;;0.98;0.77;;;10.90;99.90;;;;;;4866966;29;20032;-85
2023/12/24 05:10:41;;;;;;;0.43;0.40;;;10.90;99.90;;;;;;4865508;29;20033;-86
2023/12/24 05:13:07;;;;;;;2.45;0.60;;;10.90;99.90;;;;;;4865279;29;20036;-86
2023/12/24 05:15:34;;;;;;;0.40;0.40;;;10.90;99.90;;;;;;4881922;29;20355;-85
2023/12/24 05:18:00;;;;;;;0.47;0.47;;;10.90;99.90;;;;;;4865152;29;20029;-86
2023/12/24 05:20:26;;;;;;;0.40;0.40;;;10.90;99.90;;;;;;4881864;29;20069;-86
2023/12/24 05:22:51;;;;;;;0.40;0.40;;;10.90;99.90;;;;;;4864610;29;20033;-86
2023/12/24 05:25:20;;;;;;;0.50;0.40;;;10.90;99.90;;;;;;4864950;29;20036;-86
2023/12/24 05:27:46;;;;;;;0.60;0.60;;;11.00;99.90;;;;;;4865286;29;20117;-87
2023/12/24 05:30:12;;;;;;;0.38;0.38;;;11.00;99.90;;;;;;4848943;29;20068;-86
2023/12/24 05:32:37;;;;;;;0.95;0.50;;;11.00;99.90;;;;;;4849094;29;20040;-86
2023/12/24 05:35:05;;;;;;;0.38;0.30;;;11.00;99.90;;;;;;4865326;29;20029;-85
2023/12/24 05:37:31;;;;;;;0.32;0.32;;;11.00;99.90;;;;;;4849983;29;20513;-86
2023/12/24 05:39:57;;;;;;;0.50;0.40;;;11.00;99.90;;;;;;4849544;29;20123;-87
2023/12/24 05:42:22;;;;;;;0.30;0.30;;;11.00;99.90;;;;;;4864971;29;20104;-89
2023/12/24 05:44:48;;;;;;;0.80;0.40;;;11.00;99.90;;;;;;4864661;29;20123;-87
2023/12/24 05:47:14;;;;;;;0.50;0.50;;;11.00;99.90;;;;;;4865242;29;20080;-87
2023/12/24 05:49:39;;;;;;;0.50;0.50;;;11.00;99.90;;;;;;4864741;29;20092;-85
2023/12/24 05:52:05;;;;;;;0.47;0.40;;;11.00;99.90;;;;;;4864934;29;20037;-86
2023/12/24 05:54:31;;;;;;;0.45;0.43;;;11.10;99.90;;;;;;4849044;29;20428;-85
2023/12/24 05:56:56;;;;;;;1.00;0.50;;;11.10;99.90;;;;;;4864375;29;20033;-85
2023/12/24 05:59:22;;;;;;;1.02;0.50;;;11.10;99.90;;;;;;4864226;29;20112;-86
2023/12/24 06:01:48;;;;;;;0.60;0.40;;;11.10;99.90;;;;;;4880727;29;20029;-86
2023/12/24 06:04:14;;;;;;;0.90;0.50;;;11.10;99.90;;;;;;4848855;29;20029;-85
2023/12/24 06:06:41;;;;;;;0.63;0.52;;;11.10;99.90;;;;;;4848822;29;20088;-85
2023/12/24 06:09:06;;;;;;;0.90;0.50;;;11.10;99.90;;;;;;4864100;29;20037;-85
2023/12/24 06:11:32;;;;;;;0.93;0.50;;;11.10;99.90;;;;;;4881076;29;20037;-86
2023/12/24 06:13:58;;;;;;;1.33;0.50;;;11.10;99.90;;;;;;4863807;29;20032;-86
2023/12/24 06:16:24;;;;;;;0.88;0.68;;;11.20;99.90;;;;;;4848997;29;20063;-86
2023/12/24 06:18:49;;;;;;;0.40;0.40;;;11.20;99.90;;;;;;4863789;29;20029;-85
2023/12/24 06:21:15;;;;;;;1.42;0.60;;;11.20;99.90;;;;;;4864252;29;20366;-85
2023/12/24 06:23:40;;;;;;;1.17;0.60;;;11.20;99.90;;;;;;4864109;29;20033;-86
2023/12/24 06:26:06;;;;;;;1.95;0.70;;;11.20;99.90;;;;;;4849615;29;20037;-85
2023/12/24 06:28:32;;;;;;;2.47;0.70;;;11.20;99.90;;;;;;4865655;29;20029;-84
2023/12/24 06:30:58;;;;;;;1.98;0.65;;;11.20;99.90;;;;;;4903779;29;20100;-84
2023/12/24 06:33:24;;;;;;;1.15;0.70;;;11.30;99.90;;;;;;4902114;29;20088;-85
2023/12/24 06:35:49;;;;;;;1.92;0.77;;;11.30;99.90;;;;;;4877951;29;20017;-85
2023/12/24 06:38:15;;;;;;;0.90;0.65;;;11.30;99.90;;;;;;4875418;29;20371;-86
2023/12/24 06:40:40;;;;;;;1.02;0.80;;;11.30;99.90;;;;;;4849357;29;20503;-87
2023/12/24 06:43:07;;;;;;;1.58;0.70;;;11.30;99.90;;;;;;4848404;29;20065;-86
2023/12/24 06:45:33;;;;;;;1.05;0.70;;;11.30;99.90;;;;;;4848443;29;20029;-87
2023/12/24 06:48:02;;;;;;;1.27;0.68;;;11.30;99.90;;;;;;4863853;29;20037;-87
2023/12/24 06:50:28;;;;;;;3.13;0.95;;;11.40;99.90;;;;;;4848777;29;20041;-87
2023/12/24 06:52:54;;;;;;;1.20;0.98;;;11.40;99.90;;;;;;4847736;29;20037;-87
2023/12/24 06:55:19;;;;;;;1.00;0.63;;;11.40;99.90;;;;;;4848135;29;20031;-84
2023/12/24 06:57:45;;;;;;;2.17;0.90;;;11.40;99.90;;;;;;4863065;29;20498;-85
2023/12/24 07:00:11;;;;;;;1.30;0.60;;;11.40;99.90;;;;;;4863517;29;20469;-85
2023/12/24 07:02:37;;;;;;;1.67;0.60;;;11.40;99.90;;;;;;4847955;29;20132;-86
2023/12/24 07:05:03;;;;;;;0.75;0.60;;;11.40;99.90;;;;;;4847524;29;20123;-85
2023/12/24 07:07:32;;;;;;;1.88;0.60;;;11.40;99.90;;;;;;4863177;29;20025;-86
2023/12/24 07:09:58;;;;;;;2.42;0.90;;;11.40;99.90;;;;;;4863276;29;20041;-86
2023/12/24 07:12:23;;;;;;;1.90;0.85;;;11.40;99.90;;;;;;4863205;29;20048;-86
2023/12/24 07:14:49;;;;;;;2.25;0.70;;;11.50;99.90;;;;;;4847819;29;20056;-86
2023/12/24 07:17:14;;;;;;;3.28;0.52;;;11.40;99.90;;;;;;4847689;29;20029;-85
2023/12/24 07:19:40;;;;;;;2.95;0.80;;;11.50;99.90;;;;;;4879561;29;20033;-86
2023/12/24 07:22:06;;;;;;;2.55;0.90;;;11.50;99.90;;;;;;4863095;29;20036;-85
2023/12/24 07:24:31;;;;;;;2.58;0.63;;;11.50;99.90;;;;;;4847693;29;20040;-85
2023/12/24 07:26:57;;;;;;;1.25;0.60;;;11.50;99.90;;;;;;4847547;29;20033;-85
2023/12/24 07:29:23;;;;;;;2.58;1.02;;;11.50;99.90;;;;;;4863254;29;20061;-84
2023/12/24 07:31:48;;;;;;;0.77;0.57;;;11.50;99.90;;;;;;4847547;29;20037;-84
2023/12/24 07:34:14;;;;;;;1.27;0.47;;;11.50;99.90;;;;;;4879692;29;20036;-86
2023/12/24 07:36:40;;;;;;;1.10;0.70;;;11.50;99.90;;;;;;4863164;29;20065;-88
2023/12/24 07:39:06;;;;;;;2.70;0.80;;;11.50;99.90;;;;;;4863525;29;20085;-89
2023/12/24 07:41:31;;;;;;;2.00;0.90;;;11.50;99.90;;;;;;4863197;29;20025;-88
2023/12/24 07:43:57;;;;;;;1.13;0.70;;;11.50;99.90;;;;;;4863098;29;20407;-85
2023/12/24 07:46:23;;;;;;;2.40;0.98;;;11.50;99.90;;;;;;4863124;29;20108;-88
2023/12/24 07:48:51;;;;;;;2.15;0.80;;;11.50;99.90;;;;;;4863438;29;20455;-84
2023/12/24 07:51:24;;;;;;;1.90;1.00;;;11.50;99.90;;;;;;4863281;29;20470;-89
2023/12/24 07:53:49;;;;;;;3.30;1.17;;;11.50;99.90;;;;;;4880603;29;20161;-92
2023/12/24 07:56:15;;;;;;;2.25;1.10;;;11.60;99.90;;;;;;4863376;29;20085;-87
2023/12/24 07:58:41;;;;;;;1.90;0.98;;;11.60;99.90;;;;;;4863447;29;20108;-90
2023/12/24 08:01:09;;;;;;;2.45;1.00;;;11.60;99.90;;;;;;4864133;29;20485;-90
2023/12/24 08:03:35;;;;;;;2.60;0.98;;;11.60;99.90;;;;;;4875908;29;20009;-88
2023/12/24 08:06:01;;;;;;;2.13;1.05;;;11.60;99.90;;;;;;4890037;29;20068;-84
2023/12/24 08:08:27;;;;;;;1.45;0.85;;;11.60;99.90;;;;;;4889865;29;20020;-84
2023/12/24 08:10:53;;;;;;;2.97;1.00;;;11.60;99.90;;;;;;4874681;29;20029;-86
2023/12/24 08:13:19;;;;;;;3.60;0.95;;;11.60;99.90;;;;;;4881951;29;20119;-89
2023/12/24 08:15:44;;;;;;;2.15;0.80;;;11.60;99.90;;;;;;4851595;29;20466;-87
2023/12/24 08:18:10;;;;;;;3.30;0.90;;;11.60;99.90;;;;;;4866913;29;20029;-87
2023/12/24 08:20:36;;;;;;;1.30;0.75;;;11.70;99.90;;;;;;4851471;29;20132;-88
2023/12/24 08:23:02;;;;;;;2.35;0.63;;;11.60;99.90;;;;;;4850524;29;20025;-88
2023/12/24 08:25:30;;;;;;;1.98;1.23;;;11.70;99.90;;;;;;4883071;29;20085;-89
2023/12/24 08:27:56;;;;;;;1.40;0.50;;;11.60;99.90;;;;;;4850852;29;20029;-89
2023/12/24 08:30:22;;;;;;;0.70;0.60;;;11.70;99.90;;;;;;4866417;29;20494;-88
2023/12/24 08:32:47;;;;;;;1.30;0.80;;;11.70;99.90;;;;;;4866436;29;20149;-87
2023/12/24 08:35:13;;;;;;;0.90;0.55;;;11.70;99.90;;;;;;4850466;29;20028;-87
2023/12/24 08:37:39;;;;;;;0.93;0.70;;;11.70;99.90;;;;;;4865852;29;20533;-85
2023/12/24 08:40:05;;;;;;;0.57;0.50;;;11.70;99.90;;;;;;4865615;29;20037;-87
2023/12/24 08:42:31;;;;;;;1.63;0.60;;;11.70;99.90;;;;;;4866579;29;20062;-90
2023/12/24 08:44:57;;;;;;;1.67;0.60;;;11.80;99.90;;;;;;4865991;29;20195;-90
2023/12/24 08:47:22;;;;;;;0.50;0.40;;;11.80;99.90;;;;;;4866085;29;20025;-89
2023/12/24 08:49:48;;;;;;;0.70;0.40;;;11.80;99.90;;;;;;4867393;29;20041;-88
2023/12/24 08:52:14;;;;;;;2.30;0.30;;;11.80;99.90;;;;;;4866472;29;20405;-85
2023/12/24 08:54:40;;;;;;;1.42;0.40;;;11.80;99.90;;;;;;4866706;29;20042;-87
2023/12/24 08:57:07;;;;;;;0.70;0.50;;;11.80;99.90;;;;;;4886368;29;20061;-88
2023/12/24 08:59:33;;;;;;;1.00;0.50;;;11.80;99.90;;;;;;4868964;29;20036;-88
2023/12/24 09:01:58;;;;;;;0.43;0.25;;;11.80;99.90;;;;;;4853615;29;20029;-91
2023/12/24 09:04:30;;;;;;;0.30;0.28;;;11.80;99.90;;;;;;4883946;29;20040;-89
2023/12/24 09:06:55;;;;;;;;;;;11.80;99.90;;;;;;4868236;29;20037;-89
2023/12/24 09:09:21;;;;;;;0.52;0.50;;;11.80;99.90;;;;;;4866020;29;19915;-88
2023/12/24 09:11:49;;;;;;;0.73;0.30;;;11.80;99.90;;;;;;4850563;29;20037;-91
2023/12/24 09:14:15;;;;;;;0.57;0.30;;;11.80;99.90;;;;;;4850214;29;20033;-88
2023/12/24 09:16:44;;;;;;;0.40;0.40;;;11.80;99.90;;;;;;4865772;29;20069;-86
2023/12/24 09:19:09;;;;;;;1.27;0.40;;;11.80;99.90;;;;;;4882347;29;20033;-89
2023/12/24 09:21:35;;;;;;;1.17;0.50;;;11.80;99.90;;;;;;4849827;29;20029;-89
2023/12/24 09:24:01;;;;;;;1.52;0.70;;;11.90;99.90;;;;;;4882375;29;20025;-91
2023/12/24 09:26:29;;;;;;;0.52;0.40;;;11.90;99.90;;;;;;4865875;29;20059;-89
2023/12/24 09:28:57;;;;;;;0.47;0.43;;;11.90;99.90;;;;;;4865375;29;20052;-89
2023/12/24 09:31:23;;;;;;;0.50;0.50;;;11.90;99.90;;;;;;4881666;29;20039;-88
2023/12/24 09:33:51;;;;;;;0.50;0.50;;;11.90;99.90;;;;;;4865695;29;20033;-89
2023/12/24 09:36:16;;;;;;;1.60;0.75;;;11.90;99.90;;;;;;4883064;29;20036;-89
2023/12/24 09:38:42;;;;;;;1.35;0.65;;;12.00;99.90;;;;;;4874955;29;20029;-86
2023/12/24 09:41:08;;;;;;;1.92;1.00;;;11.90;99.90;;;;;;4881324;29;20041;-84
2023/12/24 09:43:37;;;;;;;1.33;0.63;;;12.00;99.90;;;;;;4888819;29;20025;-91
2023/12/24 09:46:03;;;;;;;2.97;1.05;;;12.00;99.90;;;;;;4887509;29;20013;-86
2023/12/24 09:48:29;;;;;;;3.15;0.90;;;12.00;99.90;;;;;;4868315;29;20043;-88
2023/12/24 09:50:55;;;;;;;3.17;1.23;;;12.00;99.90;;;;;;4865857;29;20065;-89
2023/12/24 09:53:20;;;;;;;2.35;1.00;;;12.00;99.90;;;;;;4881456;29;20308;-87
2023/12/24 09:55:46;;;;;;;6.20;1.58;;;12.00;99.90;;;;;;4865531;29;20033;-89
2023/12/24 09:58:11;;;;;;;2.08;0.82;;;12.10;99.90;;;;;;4864282;29;20216;-88
2023/12/24 10:00:37;;;;;;;4.13;1.33;;;12.10;99.90;;;;;;4864992;29;20035;-88
2023/12/24 10:03:03;;;;;;;6.25;1.50;;;12.10;99.90;;;;;;4848953;29;20033;-89
2023/12/24 10:05:32;;;;;;;3.78;1.60;;;12.10;99.90;;;;;;4864873;29;20048;-88
2023/12/24 10:07:58;;;;;;;7.03;1.70;;;12.10;99.90;;;;;;4864331;29;20052;-90
2023/12/24 10:10:32;;;;;;;5.38;1.92;;;12.10;99.90;;;;;;4865281;29;20096;-90
2023/12/24 10:13:10;;;;;;;7.15;1.90;;;12.10;99.90;;;;;;4865611;29;20040;-91
2023/12/24 10:15:39;;;;;;;6.68;1.95;;;12.10;99.90;;;;;;4865275;29;20029;-90
2023/12/24 10:18:20;;;;;;;10.20;2.90;;;12.10;99.90;;;;;;4865090;29;20117;-87
2023/12/24 10:21:10;;;;;;;11.85;2.83;;;12.10;99.90;;;;;;4849846;29;20040;-91
2023/12/24 10:23:36;;;;;;;12.60;3.10;;;12.10;99.90;;;;;;4849416;29;20040;-92
2023/12/24 10:26:04;;;;;;;14.15;3.05;;;12.10;99.90;;;;;;4864664;29;20036;-92
2023/12/24 10:28:32;;;;;;;11.13;3.17;;;12.10;99.90;;;;;;4881035;29;20029;-90
2023/12/24 10:31:08;;;;;;;14.65;3.83;;;12.20;99.90;;;;;;4864516;29;20037;-89
2023/12/24 10:33:38;;;;;;;14.38;3.50;;;12.20;99.90;;;;;;4864257;29;20043;-90
2023/12/24 10:36:05;;;;;;;14.27;4.03;;;12.20;99.90;;;;;;4863917;29;20021;-88
2023/12/24 10:38:33;;;;;;;15.32;4.80;;;12.20;99.90;;;;;;4863046;29;20039;-90
2023/12/24 10:41:00;;;;;;;15.75;4.20;;;12.30;99.90;;;;;;4864251;29;20037;-88
2023/12/24 10:43:26;;;;;;;19.40;4.60;;;12.20;99.90;;;;;;4863901;29;20066;-88
2023/12/24 10:45:52;;;;;;;17.98;4.13;;;12.30;99.90;;;;;;4863470;29;20028;-86
2023/12/24 10:48:21;;;;;;;15.48;3.63;;;12.30;99.90;;;;;;4848579;29;20120;-88
2023/12/24 10:50:47;;;;;;;19.80;4.25;;;12.30;99.90;;;;;;4848039;29;20041;-86
2023/12/24 10:53:13;;;;;;;16.55;3.97;;;12.30;99.90;;;;;;4847857;29;20119;-89
2023/12/24 10:55:58;;;;;;;11.73;3.30;;;12.40;99.90;;;;;;4880843;29;20351;-88
2023/12/24 10:58:50;;;;;;;17.08;3.70;;;12.40;99.90;;;;;;4850786;29;20057;-86
2023/12/24 11:01:17;;;;;;;17.45;4.03;;;12.40;99.90;;;;;;4864058;29;20076;-85
2023/12/24 11:03:49;;;;;;;14.70;3.78;;;12.40;99.90;;;;;;4848751;29;20128;-88
2023/12/24 11:06:36;;;;;;;15.75;4.50;;;12.40;99.90;;;;;;4848127;29;20036;-87
2023/12/24 11:09:14;;;;;;;12.60;3.75;;;12.50;99.90;;;;;;4864993;29;20067;-86
2023/12/24 11:11:53;;;;;;;14.77;3.58;;;12.50;99.90;;;;;;4874557;29;20033;-87
2023/12/24 11:14:39;;;;;;;15.13;3.65;;;12.50;99.90;;;;;;4886650;29;20044;-86
2023/12/24 11:17:08;;;;;;;18.88;3.67;;;12.50;99.90;;;;;;4886709;29;20017;-84
2023/12/24 11:19:41;;;;;;;14.15;3.63;;;12.50;99.90;;;;;;4887448;29;20061;-87
2023/12/24 11:22:09;;;;;;;14.02;3.53;;;12.50;99.90;;;;;;4862623;29;20059;-91
2023/12/24 11:24:41;;;;;;;19.70;5.10;;;12.50;99.90;;;;;;4849063;29;20116;-87
2023/12/24 11:27:08;;;;;;;14.10;4.15;;;12.50;99.90;;;;;;4849304;29;20089;-88
2023/12/24 11:29:52;;;;;;;13.60;4.13;;;12.60;99.90;;;;;;4880115;29;20052;-89
2023/12/24 11:32:27;;;;;;;13.60;4.18;;;12.60;99.90;;;;;;4863568;29;20069;-89
2023/12/24 11:34:55;;;;;;;14.30;4.20;;;12.60;99.90;;;;;;4863971;29;20070;-89
2023/12/24 11:37:29;;;;;;;11.20;4.15;;;12.60;99.90;;;;;;4848667;29;20088;-90
2023/12/24 11:40:18;;;;;;;12.90;3.88;;;12.60;99.90;;;;;;4866840;29;20371;-88
2023/12/24 11:42:51;;;;;;;8.63;3.40;;;12.60;99.90;;;;;;4883990;29;20040;-87
2023/12/24 11:45:31;;;;;;;9.07;3.45;;;12.60;99.90;;;;;;4867159;29;20052;-87
2023/12/24 11:47:57;;;;;;;7.65;3.60;;;12.60;99.90;;;;;;4851671;29;20131;-89
2023/12/24 11:50:24;;;;;;;9.50;3.65;;;12.60;99.90;;;;;;4866999;29;20115;-87
2023/12/24 11:52:50;;;;;;;6.90;3.35;;;12.60;99.90;;;;;;4884021;29;20119;-91
2023/12/24 11:55:22;;;;;;;9.45;3.45;;;12.70;99.90;;;;;;4866456;29;20038;-88
2023/12/24 11:57:49;;;;;;;8.90;3.58;;;12.70;99.90;;;;;;4866157;29;20045;-87
2023/12/24 12:00:24;;;;;;;4.47;3.03;;;12.70;99.90;;;;;;4866137;29;20080;-85
2023/12/24 12:02:58;;;;;;;8.35;3.65;;;12.70;99.90;;;;;;4865595;29;20466;-86
2023/12/24 12:05:25;;;;;;;8.23;2.92;;;12.70;99.90;;;;;;4865910;29;20072;-86
2023/12/24 12:07:54;;;;;;;7.25;3.08;;;12.80;99.90;;;;;;4867049;29;20033;-86
2023/12/24 12:10:20;;;;;;;5.18;2.65;;;12.70;99.90;;;;;;4882315;29;20044;-86
2023/12/24 12:12:46;;;;;;;4.88;2.33;;;12.70;99.90;;;;;;4865907;29;20029;-86
2023/12/24 12:15:12;;;;;;;4.55;2.60;;;12.70;99.90;;;;;;4882589;29;20382;-86
2023/12/24 12:20:36;;;;;;;3.75;2.13;;;12.80;99.90;;;;;;4871606;29;20044;-85
2023/12/24 12:23:02;;;;;;;2.92;1.85;;;12.80;99.90;;;;;;4866174;29;20037;-87
2023/12/24 12:25:28;;;;;;;3.05;1.75;;;12.80;99.90;;;;;;4851133;29;20033;-87
2023/12/24 12:27:54;;;;;;;5.95;2.60;;;12.80;99.90;;;;;;4865931;29;20025;-87
2023/12/24 12:30:21;;;;;;;2.53;1.73;;;12.80;99.90;;;;;;4882302;29;20029;-85
2023/12/24 12:35:55;;;;;;;2.92;1.70;;;12.80;99.90;;;;;;4872605;29;20033;-87
2023/12/24 12:38:23;;;;;;;3.25;1.58;;;12.80;99.90;;;;;;4866053;29;20088;-86
2023/12/24 12:40:51;;;;;;;2.90;1.45;;;12.80;99.90;;;;;;4882680;29;20604;-87
2023/12/24 12:43:17;;;;;;;2.03;1.60;;;12.80;99.90;;;;;;4865545;29;20077;-87
2023/12/24 12:45:46;;;;;;;4.05;2.10;;;12.80;99.90;;;;;;4866043;29;20037;-87
2023/12/24 12:48:14;;;;;;;4.05;1.83;;;12.80;99.90;;;;;;4860603;29;20037;-86
2023/12/24 12:50:41;;;;;;;1.95;1.52;;;12.80;99.90;;;;;;4873025;29;20025;-84